createdAt,value
2022-10-04T00:01:33.085Z,15.10
2022-10-04T00:04:21.502Z,15.18
2022-10-04T00:07:06.680Z,15.60
2022-10-04T00:09:42.198Z,15.45
2022-10-04T00:12:20.347Z,15.50
2022-10-04T00:14:48.011Z,15.48
2022-10-04T00:17:23.645Z,15.73
2022-10-04T00:19:52.302Z,15.90
2022-10-04T00:22:22.309Z,15.23
2022-10-04T00:25:10.488Z,14.75
2022-10-04T00:27:38.777Z,15.60
2022-10-04T00:30:05.561Z,15.55
2022-10-04T00:32:41.569Z,15.30
2022-10-04T00:35:28.805Z,15.63
2022-10-04T00:38:02.246Z,15.32
2022-10-04T00:40:50.546Z,15.52
2022-10-04T00:43:33.953Z,15.38
2022-10-04T00:46:13.373Z,15.10
2022-10-04T00:48:51.897Z,15.35
2022-10-04T00:51:24.627Z,15.38
2022-10-04T00:54:01.452Z,15.23
2022-10-04T00:56:30.956Z,15.20
2022-10-04T00:58:57.729Z,15.38
2022-10-04T01:01:27.428Z,15.13
2022-10-04T01:03:58.048Z,14.98
2022-10-04T01:06:26.530Z,15.18
2022-10-04T01:08:56.059Z,15.15
2022-10-04T01:11:27.207Z,15.27
2022-10-04T01:13:59.789Z,14.75
2022-10-04T01:16:29.555Z,14.75
2022-10-04T01:19:22.231Z,14.95
2022-10-04T01:21:59.654Z,14.50
2022-10-04T01:24:34.981Z,14.70
2022-10-04T01:27:02.806Z,14.43
2022-10-04T01:29:31.423Z,14.30
2022-10-04T01:32:02.019Z,14.65
2022-10-04T01:34:30.461Z,14.57
2022-10-04T01:36:59.709Z,14.80
2022-10-04T01:39:28.954Z,14.65
2022-10-04T01:42:15.481Z,14.50
2022-10-04T01:44:55.576Z,14.23
2022-10-04T01:47:33.045Z,14.30
2022-10-04T01:50:07.519Z,14.93
2022-10-04T01:52:41.540Z,14.65
2022-10-04T01:55:29.569Z,14.13
2022-10-04T01:58:19.661Z,14.75
2022-10-04T02:00:57.627Z,14.55
2022-10-04T02:03:45.984Z,14.32
2022-10-04T02:06:14.412Z,14.45
2022-10-04T02:08:49.547Z,14.80
2022-10-04T02:11:22.051Z,14.88
2022-10-04T02:13:51.882Z,15.00
2022-10-04T02:16:20.885Z,15.20
2022-10-04T02:18:50.423Z,15.43
2022-10-04T02:21:19.020Z,15.73
2022-10-04T02:23:47.175Z,15.07
2022-10-04T02:26:14.108Z,14.80
2022-10-04T02:28:41.171Z,15.07
2022-10-04T02:31:28.673Z,15.13
2022-10-04T02:33:59.551Z,14.68
2022-10-04T02:36:29.603Z,15.02
2022-10-04T02:39:04.985Z,14.80
2022-10-04T02:42:02.802Z,15.30
2022-10-04T02:44:43.957Z,15.25
2022-10-04T02:47:17.342Z,15.27
2022-10-04T02:49:53.217Z,15.90
2022-10-04T02:52:41.698Z,14.93
2022-10-04T02:55:30.958Z,15.80
2022-10-04T02:57:59.530Z,15.50
2022-10-04T03:00:29.469Z,16.20
2022-10-04T03:03:11.564Z,13.45
2022-10-04T03:05:40.335Z,15.50
2022-10-04T03:08:07.699Z,15.85
2022-10-04T03:10:35.971Z,16.27
2022-10-04T03:13:03.750Z,16.17
2022-10-04T03:15:32.729Z,15.52
2022-10-04T03:18:00.166Z,15.80
2022-10-04T03:20:28.022Z,14.80
2022-10-04T03:22:56.581Z,13.38
2022-10-04T03:25:30.012Z,15.50
2022-10-04T03:28:02.249Z,14.23
2022-10-04T03:30:30.257Z,16.83
2022-10-04T03:32:57.238Z,16.40
2022-10-04T03:35:40.586Z,16.63
2022-10-04T03:38:11.469Z,16.45
2022-10-04T03:40:43.613Z,15.50
2022-10-04T03:43:13.922Z,16.02
2022-10-04T03:45:42.007Z,15.68
2022-10-04T03:48:14.940Z,15.88
2022-10-04T03:50:48.272Z,16.73
2022-10-04T03:53:27.743Z,15.65
2022-10-04T03:55:54.614Z,15.50
2022-10-04T03:58:23.983Z,16.15
2022-10-04T04:01:12.434Z,16.27
2022-10-04T04:03:53.584Z,14.00
2022-10-04T04:08:53.215Z,15.73
2022-10-04T04:11:27.953Z,14.90
2022-10-04T04:14:04.925Z,15.88
2022-10-04T04:16:32.339Z,16.25
2022-10-04T04:19:02.694Z,15.70
2022-10-04T04:21:31.191Z,15.35
2022-10-04T04:24:05.530Z,15.18
2022-10-04T04:26:41.021Z,16.00
2022-10-04T04:29:11.204Z,16.02
2022-10-04T04:31:44.106Z,15.97
2022-10-04T04:34:29.949Z,16.52
2022-10-04T04:37:01.905Z,15.98
2022-10-04T04:39:41.137Z,16.35
2022-10-04T04:42:10.965Z,15.70
2022-10-04T04:44:58.292Z,16.55
2022-10-04T04:47:40.211Z,16.50
2022-10-04T04:50:13.144Z,16.40
2022-10-04T04:52:41.369Z,16.75
2022-10-04T04:55:21.008Z,16.90
2022-10-04T04:57:50.946Z,16.65
2022-10-04T05:00:20.629Z,17.05
2022-10-04T05:02:58.174Z,16.40
2022-10-04T05:05:33.234Z,16.58
2022-10-04T05:08:15.127Z,16.77
2022-10-04T05:11:06.104Z,17.00
2022-10-04T05:13:40.182Z,16.67
2022-10-04T05:16:19.683Z,16.38
2022-10-04T05:18:47.386Z,16.80
2022-10-04T05:21:28.594Z,16.25
2022-10-04T05:23:58.309Z,17.05
2022-10-04T05:26:29.373Z,17.48
2022-10-04T05:31:47.842Z,17.45
2022-10-04T05:34:27.269Z,17.48
2022-10-04T05:37:22.626Z,19.00
2022-10-04T05:40:24.699Z,18.45
2022-10-04T05:42:52.359Z,18.70
2022-10-04T05:45:23.537Z,18.50
2022-10-04T05:47:53.738Z,17.90
2022-10-04T05:50:36.512Z,18.52
2022-10-04T05:53:33.129Z,18.25
2022-10-04T05:56:18.602Z,18.52
2022-10-04T05:58:48.307Z,18.65
2022-10-04T06:01:38.407Z,19.02
2022-10-04T06:04:32.870Z,18.58
2022-10-04T06:07:12.152Z,17.85
2022-10-04T06:10:17.229Z,17.70
2022-10-04T06:12:55.264Z,17.60
2022-10-04T06:15:41.066Z,18.35
2022-10-04T06:18:20.015Z,18.35
2022-10-04T06:21:12.379Z,17.85
2022-10-04T06:23:48.396Z,18.52
2022-10-04T06:26:28.703Z,17.83
2022-10-04T06:29:02.321Z,18.55
2022-10-04T06:31:47.454Z,18.15
2022-10-04T06:34:36.018Z,18.85
2022-10-04T06:37:11.976Z,18.23
2022-10-04T06:40:06.301Z,18.50
2022-10-04T06:42:55.096Z,18.25
2022-10-04T06:45:30.501Z,18.50
2022-10-04T06:48:07.639Z,18.17
2022-10-04T06:50:50.633Z,18.30
2022-10-04T06:53:43.592Z,17.95
2022-10-04T06:56:19.467Z,17.73
2022-10-04T06:59:08.341Z,17.85
2022-10-04T07:01:52.111Z,17.67
2022-10-04T07:05:06.641Z,17.17
2022-10-04T07:07:38.335Z,17.90
2022-10-04T07:10:23.714Z,17.83
2022-10-04T07:13:01.769Z,17.35
2022-10-04T07:15:43.337Z,18.08
2022-10-04T07:18:16.050Z,17.85
2022-10-04T07:20:43.143Z,17.98
2022-10-04T07:23:28.503Z,18.23
2022-10-04T07:26:01.403Z,18.00
2022-10-04T07:28:52.748Z,17.92
2022-10-04T07:31:26.169Z,18.13
2022-10-04T07:34:11.245Z,17.88
2022-10-04T07:36:49.146Z,17.90
2022-10-04T07:39:38.132Z,17.38
2022-10-04T07:42:22.167Z,18.58
2022-10-04T07:45:15.388Z,18.02
2022-10-04T07:47:43.272Z,17.75
2022-10-04T07:50:29.184Z,20.63
2022-10-04T07:52:59.180Z,21.45
2022-10-04T07:55:33.180Z,18.05
2022-10-04T07:58:14.737Z,18.10
2022-10-04T08:00:52.115Z,18.15
2022-10-04T08:03:50.873Z,19.13
2022-10-04T08:06:35.994Z,18.70
2022-10-04T08:09:02.759Z,21.23
2022-10-04T08:11:53.855Z,18.40
2022-10-04T08:17:39.006Z,18.77
2022-10-04T08:20:26.765Z,22.92
2022-10-04T08:23:12.349Z,21.52
2022-10-04T08:25:46.152Z,23.85
2022-10-04T08:28:53.982Z,18.58
2022-10-04T08:31:45.342Z,18.63
2022-10-04T08:34:17.953Z,18.40
2022-10-04T08:37:06.444Z,18.40
2022-10-04T08:40:13.203Z,17.98
2022-10-04T08:43:12.910Z,18.98
2022-10-04T08:46:01.114Z,18.52
2022-10-04T08:49:04.924Z,18.52
2022-10-04T08:52:01.151Z,20.98
2022-10-04T08:55:05.654Z,21.48
2022-10-04T08:57:44.713Z,18.15
2022-10-04T09:00:36.490Z,22.75
2022-10-04T09:03:26.514Z,19.23
2022-10-04T09:05:59.193Z,22.80
2022-10-04T09:09:04.375Z,18.98
2022-10-04T09:11:51.936Z,23.83
2022-10-04T09:14:40.042Z,21.45
2022-10-04T09:17:38.725Z,20.45
2022-10-04T09:20:36.632Z,23.40
2022-10-04T09:23:06.543Z,19.65
2022-10-04T09:25:49.891Z,18.65
2022-10-04T09:28:43.444Z,18.63
2022-10-04T09:31:48.823Z,22.40
2022-10-04T09:34:31.626Z,20.67
2022-10-04T09:37:32.645Z,20.98
2022-10-04T09:40:47.498Z,20.13
2022-10-04T09:43:25.967Z,18.80
2022-10-04T09:46:31.642Z,21.35
2022-10-04T09:49:30.677Z,20.17
2022-10-04T09:52:03.570Z,17.63
2022-10-04T09:55:06.486Z,23.48
2022-10-04T09:58:05.786Z,18.42
2022-10-04T10:00:48.912Z,19.23
2022-10-04T10:03:59.239Z,19.90
2022-10-04T10:06:47.168Z,19.40
2022-10-04T10:09:50.990Z,18.33
2022-10-04T10:13:04.757Z,18.40
2022-10-04T10:15:56.153Z,17.60
2022-10-04T10:18:32.930Z,17.00
2022-10-04T10:20:59.832Z,18.05
2022-10-04T10:23:45.487Z,17.92
2022-10-04T10:26:27.583Z,17.30
2022-10-04T10:29:28.891Z,16.48
2022-10-04T10:32:10.527Z,17.20
2022-10-04T10:35:09.677Z,16.70
2022-10-04T10:37:43.515Z,16.50
2022-10-04T10:40:35.197Z,17.40
2022-10-04T10:43:31.099Z,16.45
2022-10-04T10:46:36.412Z,15.40
2022-10-04T10:49:26.751Z,15.85
2022-10-04T10:52:27.797Z,15.40
2022-10-04T10:58:15.421Z,15.00
2022-10-04T11:00:54.453Z,14.63
2022-10-04T11:03:59.702Z,15.30
2022-10-04T11:06:48.574Z,14.73
2022-10-04T11:09:44.513Z,14.50
2022-10-04T11:12:49.466Z,14.73
2022-10-04T11:15:40.725Z,14.80
2022-10-04T11:18:44.328Z,14.80
2022-10-04T11:21:48.833Z,14.60
2022-10-04T11:24:46.505Z,15.65
2022-10-04T11:27:13.831Z,15.45
2022-10-04T11:29:59.958Z,15.10
2022-10-04T11:33:04.324Z,14.80
2022-10-04T11:35:39.186Z,14.35
2022-10-04T11:38:05.955Z,14.05
2022-10-04T11:41:07.381Z,14.30
2022-10-04T11:44:00.553Z,14.48
2022-10-04T11:46:27.383Z,14.25
2022-10-04T11:49:25.544Z,14.00
2022-10-04T11:52:19.856Z,14.80
2022-10-04T11:55:11.989Z,14.68
2022-10-04T11:57:44.686Z,14.47
2022-10-04T12:00:18.222Z,13.57
2022-10-04T12:02:47.861Z,14.38
2022-10-04T12:05:23.709Z,14.00
2022-10-04T12:08:05.526Z,13.43
2022-10-04T12:10:39.789Z,14.05
2022-10-04T12:13:14.445Z,14.60
2022-10-04T12:16:15.414Z,15.00
2022-10-04T12:19:13.835Z,14.20
2022-10-04T12:21:59.629Z,14.10
2022-10-04T12:24:49.119Z,16.60
2022-10-04T12:27:28.917Z,15.15
2022-10-04T12:30:04.965Z,14.88
2022-10-04T12:33:03.536Z,16.48
2022-10-04T12:35:49.340Z,14.88
2022-10-04T12:38:38.777Z,15.10
2022-10-04T12:41:18.028Z,16.77
2022-10-04T12:43:52.882Z,14.80
2022-10-04T12:46:54.096Z,14.85
2022-10-04T12:49:42.090Z,15.25
2022-10-04T12:52:16.855Z,16.35
2022-10-04T12:54:47.645Z,15.98
2022-10-04T12:57:36.445Z,14.50
2022-10-04T13:00:25.100Z,14.10
2022-10-04T13:03:10.759Z,13.88
2022-10-04T13:06:05.041Z,14.55
2022-10-04T13:08:37.979Z,13.43
2022-10-04T13:11:20.813Z,14.10
2022-10-04T13:14:00.792Z,16.92
2022-10-04T13:20:20.189Z,13.52
2022-10-04T13:23:03.077Z,13.20
2022-10-04T13:25:48.262Z,13.55
2022-10-04T13:28:46.899Z,15.68
2022-10-04T13:31:23.959Z,15.60
2022-10-04T13:34:09.723Z,14.23
2022-10-04T13:36:52.064Z,13.82
2022-10-04T13:39:44.158Z,15.05
2022-10-04T13:42:17.221Z,13.48
2022-10-04T13:45:09.179Z,14.18
2022-10-04T13:47:54.632Z,14.55
2022-10-04T13:50:36.892Z,12.63
2022-10-04T13:53:34.221Z,12.43
2022-10-04T13:56:34.034Z,13.32
2022-10-04T13:59:35.624Z,12.57
2022-10-04T14:05:13.483Z,13.45
2022-10-04T14:07:46.270Z,13.45
2022-10-04T14:10:46.243Z,12.50
2022-10-04T14:13:24.972Z,13.13
2022-10-04T14:15:51.725Z,14.05
2022-10-04T14:18:43.526Z,13.93
2022-10-04T14:21:39.256Z,15.45
2022-10-04T14:24:17.627Z,14.13
2022-10-04T14:26:51.028Z,15.13
2022-10-04T14:29:53.193Z,14.15
2022-10-04T14:32:30.247Z,14.60
2022-10-04T14:35:08.672Z,13.63
2022-10-04T14:38:27.080Z,13.88
2022-10-04T14:41:17.726Z,13.43
2022-10-04T14:44:02.922Z,13.30
2022-10-04T14:46:30.071Z,13.80
2022-10-04T14:49:00.351Z,13.52
2022-10-04T14:51:47.115Z,13.00
2022-10-04T14:54:22.941Z,13.48
2022-10-04T14:57:12.550Z,12.63
2022-10-04T15:00:01.234Z,13.82
2022-10-04T15:02:31.690Z,14.07
2022-10-04T15:05:08.344Z,14.30
2022-10-04T15:07:42.119Z,15.85
2022-10-04T15:10:14.943Z,15.73
2022-10-04T15:13:10.698Z,16.20
2022-10-04T15:16:01.425Z,15.35
2022-10-04T15:18:45.853Z,14.67
2022-10-04T15:21:33.875Z,16.02
2022-10-04T15:24:25.565Z,15.88
2022-10-04T15:27:20.331Z,14.20
2022-10-04T15:29:59.614Z,13.57
2022-10-04T15:32:54.156Z,13.52
2022-10-04T15:35:58.114Z,13.02
2022-10-04T15:38:33.826Z,12.90
2022-10-04T15:41:17.072Z,13.30
2022-10-04T15:44:15.830Z,14.25
2022-10-04T15:46:56.910Z,13.60
2022-10-04T15:49:49.339Z,13.90
2022-10-04T15:52:53.590Z,14.80
2022-10-04T15:55:34.787Z,13.82
2022-10-04T15:58:26.456Z,13.32
2022-10-04T16:01:26.371Z,12.82
2022-10-04T16:04:19.098Z,13.23
2022-10-04T16:06:53.193Z,12.90
2022-10-04T16:09:26.296Z,13.68
2022-10-04T16:12:19.250Z,12.20
2022-10-04T16:14:57.957Z,13.05
2022-10-04T16:17:49.264Z,13.60
2022-10-04T16:20:25.412Z,12.85
2022-10-04T16:23:31.744Z,12.50
2022-10-04T16:26:34.343Z,12.80
2022-10-04T16:29:31.917Z,12.35
2022-10-04T16:32:13.656Z,13.25
2022-10-04T16:34:45.552Z,14.00
2022-10-04T16:37:14.622Z,14.40
2022-10-04T16:39:59.269Z,13.65
2022-10-04T16:42:44.707Z,13.68
2022-10-04T16:45:11.981Z,13.27
2022-10-04T16:47:50.737Z,13.07
2022-10-04T16:50:46.236Z,13.10
2022-10-04T16:53:46.614Z,13.10
2022-10-04T16:56:26.591Z,12.02
2022-10-04T16:59:02.051Z,12.48
2022-10-04T17:02:00.251Z,12.30
2022-10-04T17:04:36.091Z,12.07
2022-10-04T17:07:27.612Z,12.65
2022-10-04T17:10:31.157Z,13.00
2022-10-04T17:13:06.656Z,12.35
2022-10-04T17:15:59.756Z,12.10
2022-10-04T17:18:41.400Z,12.80
2022-10-04T17:21:46.293Z,12.40
2022-10-04T17:24:51.768Z,12.57
2022-10-04T17:27:45.366Z,12.70
2022-10-04T17:30:17.013Z,12.40
2022-10-04T17:32:46.755Z,12.10
2022-10-04T17:35:22.615Z,12.60
2022-10-04T17:38:10.544Z,13.15
2022-10-04T17:41:03.037Z,11.98
2022-10-04T17:44:07.090Z,13.30
2022-10-04T17:46:55.871Z,12.60
2022-10-04T17:49:41.129Z,12.50
2022-10-04T17:52:36.198Z,12.20
2022-10-04T17:55:18.975Z,12.70
2022-10-04T17:58:04.591Z,12.75
2022-10-04T18:01:10.342Z,12.88
2022-10-04T18:03:53.666Z,12.75
2022-10-04T18:06:26.272Z,12.75
2022-10-04T18:09:03.198Z,13.18
2022-10-04T18:11:47.286Z,13.35
2022-10-04T18:14:42.972Z,12.77
2022-10-04T18:17:22.236Z,12.80
2022-10-04T18:19:51.861Z,13.30
2022-10-04T18:22:21.543Z,13.15
2022-10-04T18:25:11.218Z,13.23
2022-10-04T18:28:11.944Z,13.18
2022-10-04T18:30:58.966Z,13.90
2022-10-04T18:33:49.999Z,13.80
2022-10-04T18:36:27.521Z,13.65
2022-10-04T18:39:12.285Z,13.27
2022-10-04T18:41:55.718Z,14.00
2022-10-04T18:44:41.879Z,13.88
2022-10-04T18:47:16.732Z,13.20
2022-10-04T18:49:54.721Z,13.45
2022-10-04T18:53:19.788Z,13.35
2022-10-04T18:56:00.746Z,13.20
2022-10-04T18:58:59.037Z,13.80
2022-10-04T19:02:02.581Z,13.23
2022-10-04T19:04:54.875Z,13.93
2022-10-04T19:07:21.855Z,13.82
2022-10-04T19:10:13.683Z,14.70
2022-10-04T19:12:56.371Z,14.60
2022-10-04T19:15:40.591Z,14.13
2022-10-04T19:18:39.960Z,15.93
2022-10-04T19:21:09.569Z,15.30
2022-10-04T19:23:36.300Z,14.85
2022-10-04T19:26:31.677Z,15.30
2022-10-04T19:29:24.929Z,15.88
2022-10-04T19:32:05.590Z,17.38
2022-10-04T19:34:49.132Z,17.65
2022-10-04T19:37:54.270Z,18.02
2022-10-04T19:41:06.203Z,15.30
2022-10-04T19:44:11.363Z,14.73
2022-10-04T19:47:07.826Z,14.50
2022-10-04T19:50:03.436Z,15.02
2022-10-04T19:52:38.913Z,14.60
2022-10-04T19:55:33.976Z,14.57
2022-10-04T19:58:27.264Z,14.52
2022-10-04T20:00:54.409Z,14.48
2022-10-04T20:03:21.448Z,14.50
2022-10-04T20:05:53.348Z,14.23
2022-10-04T20:08:49.594Z,13.90
2022-10-04T20:11:51.930Z,14.10
2022-10-04T20:14:21.643Z,13.93
2022-10-04T20:16:53.355Z,13.90
2022-10-04T20:19:29.288Z,13.80
2022-10-04T20:22:18.525Z,13.55
2022-10-04T20:24:45.230Z,13.57
2022-10-04T20:27:20.819Z,13.90
2022-10-04T20:29:53.384Z,13.48
2022-10-04T20:32:36.883Z,13.77
2022-10-04T20:35:06.375Z,14.05
2022-10-04T20:37:45.378Z,13.68
2022-10-04T20:40:34.597Z,13.57
2022-10-04T20:43:13.348Z,14.20
2022-10-04T20:45:48.409Z,13.90
2022-10-04T20:48:26.717Z,13.75
2022-10-04T20:50:55.119Z,13.60
2022-10-04T20:53:28.451Z,13.65
2022-10-04T20:56:14.066Z,13.80
2022-10-04T20:58:41.447Z,13.57
2022-10-04T21:01:34.066Z,13.57
2022-10-04T21:04:35.696Z,13.77
2022-10-04T21:07:08.275Z,13.38
2022-10-04T21:09:37.656Z,13.20
2022-10-04T21:12:05.661Z,13.70
2022-10-04T21:14:36.631Z,13.98
2022-10-04T21:19:35.700Z,13.90
2022-10-04T21:22:04.431Z,13.95
2022-10-04T21:24:38.780Z,13.85
2022-10-04T21:27:10.835Z,13.63
2022-10-04T21:29:39.311Z,13.60
2022-10-04T21:32:06.306Z,13.35
2022-10-04T21:37:20.853Z,13.57
2022-10-04T21:39:48.916Z,13.77
2022-10-04T21:42:15.848Z,13.30
2022-10-04T21:44:42.704Z,13.43
2022-10-04T21:47:10.462Z,13.40
2022-10-04T21:49:38.093Z,14.38
2022-10-04T21:52:05.531Z,13.65
2022-10-04T21:54:33.427Z,13.80
2022-10-04T21:57:00.459Z,13.57
2022-10-04T21:59:27.529Z,13.55
2022-10-04T22:01:54.354Z,13.40
2022-10-04T22:04:21.104Z,13.98
2022-10-04T22:06:48.553Z,14.10
2022-10-04T22:09:15.656Z,14.40
2022-10-04T22:11:42.446Z,14.07
2022-10-04T22:14:09.216Z,14.50
2022-10-04T22:16:35.971Z,14.30
2022-10-04T22:19:02.974Z,14.40
2022-10-04T22:21:29.810Z,14.25
2022-10-04T22:23:56.728Z,14.27
2022-10-04T22:26:26.168Z,14.73
2022-10-04T22:28:56.331Z,14.65
2022-10-04T22:31:27.351Z,14.57
2022-10-04T22:36:22.839Z,14.02
2022-10-04T22:39:02.955Z,13.80
2022-10-04T22:41:33.123Z,14.00
2022-10-04T22:44:10.745Z,13.75
2022-10-04T22:46:39.835Z,14.02
2022-10-04T22:49:16.793Z,13.85
2022-10-04T22:51:45.191Z,13.93
2022-10-04T22:54:25.084Z,13.45
2022-10-04T22:56:53.256Z,13.23
2022-10-04T22:59:22.423Z,13.40
2022-10-04T23:01:52.768Z,13.50
2022-10-04T23:04:24.922Z,13.48
2022-10-04T23:06:53.927Z,13.57
2022-10-04T23:09:21.251Z,13.68
2022-10-04T23:11:49.350Z,13.07
2022-10-04T23:14:16.373Z,13.45
2022-10-04T23:16:44.831Z,13.98
2022-10-04T23:19:15.152Z,13.90
2022-10-04T23:21:45.653Z,13.33
2022-10-04T23:24:12.771Z,13.48
2022-10-04T23:26:41.383Z,13.13
2022-10-04T23:29:28.105Z,13.15
2022-10-04T23:31:56.289Z,12.95
2022-10-04T23:34:34.474Z,13.02
2022-10-04T23:37:02.325Z,13.07
2022-10-04T23:39:32.624Z,13.00
2022-10-04T23:42:00.134Z,12.87
2022-10-04T23:44:36.226Z,12.88
2022-10-04T23:47:05.885Z,13.35
2022-10-04T23:49:33.211Z,13.70
2022-10-04T23:52:03.108Z,12.95
2022-10-04T23:54:30.585Z,13.02
2022-10-04T23:56:57.843Z,13.38
2022-10-04T23:59:25.941Z,13.20
